Time;durP1;ratioP1;P1;durP2;ratioP2;P2;SDS_P1;SDS_P2;PMS_P1;PMS_P2;Temp;Humidity;BMP_temperature;BMP_pressure;BME280_temperature;BME280_humidity;BME280_pressure;Samples;Min_cycle;Max_cycle;Signal;HPM_P1;HPM_P2
2022/07/13 00:01:55;;;;;;;6.22;1.48;;;;;;;14.39;71.30;99656.88;8427987;28;20050;-74
2022/07/13 00:05:56;;;;;;;3.13;1.50;;;;;;;14.28;71.95;99647.41;8392020;28;20051;-74
2022/07/13 00:09:58;;;;;;;3.05;1.27;;;;;;;14.26;72.01;99644.22;8425733;28;20077;-75
2022/07/13 00:13:59;;;;;;;2.67;1.30;;;;;;;14.23;72.55;99650.28;8428862;28;20419;-74
2022/07/13 00:18:00;;;;;;;6.60;1.50;;;;;;;14.23;72.47;99650.28;8425409;28;20048;-74
2022/07/13 00:22:01;;;;;;;3.88;1.42;;;;;;;14.23;72.52;99647.56;8428824;28;20418;-74
2022/07/13 00:26:02;;;;;;;3.60;1.30;;;;;;;14.21;72.86;99652.53;8392269;28;20044;-74
2022/07/13 00:30:03;;;;;;;3.40;1.30;;;;;;;14.20;72.85;99648.22;8427502;28;20488;-74
2022/07/13 00:34:04;;;;;;;8.00;1.50;;;;;;;14.14;73.32;99652.19;8368909;28;20466;-74
2022/07/13 00:38:05;;;;;;;6.65;1.40;;;;;;;14.08;73.54;99642.59;8423590;28;20098;-73
2022/07/13 00:42:06;;;;;;;5.53;1.33;;;;;;;14.04;73.72;99630.78;8426965;28;20044;-74
2022/07/13 00:46:08;;;;;;;5.50;2.03;;;;;;;14.07;73.79;99646.44;8424124;28;20063;-75
2022/07/13 00:50:10;;;;;;;1.92;1.20;;;;;;;14.02;73.85;99627.59;8426063;28;20048;-74
2022/07/13 00:54:12;;;;;;;4.60;1.40;;;;;;;13.96;74.30;99635.88;8425572;28;20051;-74
2022/07/13 00:58:13;;;;;;;6.20;1.40;;;;;;;13.89;74.49;99630.16;8427440;28;20044;-75
2022/07/13 01:02:14;;;;;;;4.20;1.60;;;;;;;13.82;74.84;99624.38;8416746;28;20056;-75
2022/07/13 01:06:17;;;;;;;4.07;1.60;;;;;;;13.75;75.25;99624.03;8414881;28;20097;-75
2022/07/13 01:10:17;;;;;;;4.32;1.58;;;;;;;13.68;75.49;99618.31;8424599;28;20511;-74
2022/07/13 01:14:19;;;;;;;4.07;1.70;;;;;;;13.63;75.56;99621.16;8407595;28;20048;-75
2022/07/13 01:18:20;;;;;;;3.33;1.30;;;;;;;13.60;76.08;99627.22;8422738;28;20506;-75
2022/07/13 01:22:24;;;;;;;2.50;1.33;;;;;;;13.54;76.12;99629.25;8398357;28;20071;-75
2022/07/13 01:26:25;;;;;;;6.28;1.67;;;;;;;13.51;76.38;99629.91;8424573;28;20040;-74
2022/07/13 01:30:26;;;;;;;2.33;1.40;;;;;;;13.50;76.36;99632.94;8407902;28;20560;-74
2022/07/13 01:34:27;;;;;;;5.40;2.05;;;;;;;13.42;76.76;99625.56;8421982;28;20044;-76
2022/07/13 01:38:31;;;;;;;2.78;1.50;;;;;;;13.37;76.97;99628.44;8422003;28;20048;-74
2022/07/13 01:42:32;;;;;;;3.95;1.55;;;;;;;13.31;77.43;99613.41;8357282;28;20048;-75
2022/07/13 01:46:34;;;;;;;7.45;1.70;;;;;;;13.28;77.56;99608.59;8407283;28;20164;-75
2022/07/13 01:50:35;;;;;;;6.65;1.80;;;;;;;13.26;77.76;99602.69;8419152;28;20531;-74
2022/07/13 01:54:36;;;;;;;6.82;1.67;;;;;;;13.23;78.02;99606.03;8373821;28;20544;-74
2022/07/13 01:58:37;;;;;;;3.03;1.60;;;;;;;13.29;78.19;99605.56;8386070;28;20071;-75
2022/07/13 02:02:39;;;;;;;6.03;1.63;;;;;;;13.32;78.25;99612.31;8425389;28;20096;-74
2022/07/13 02:06:40;;;;;;;5.47;1.60;;;;;;;13.37;78.08;99606.72;8407101;28;20127;-74
2022/07/13 02:10:41;;;;;;;2.85;1.52;;;;;;;13.35;78.51;99608.94;8425176;28;20048;-74
2022/07/13 02:14:42;;;;;;;4.00;1.60;;;;;;;13.33;78.67;99611.16;8424969;28;20062;-74
2022/07/13 02:18:44;;;;;;;3.72;1.58;;;;;;;13.29;79.03;99600.16;8419647;28;20043;-74
2022/07/13 02:22:45;;;;;;;6.20;1.90;;;;;;;13.29;79.29;99604.78;8388774;28;20039;-74
2022/07/13 02:26:46;;;;;;;3.67;1.77;;;;;;;13.31;79.21;99602.56;8432193;28;20032;-74
2022/07/13 02:30:47;;;;;;;2.97;1.80;;;;;;;13.31;79.46;99599.84;8431997;28;20044;-74
2022/07/13 02:34:48;;;;;;;4.60;1.70;;;;;;;13.30;79.57;99600.94;8431994;28;20039;-74
2022/07/13 02:38:49;;;;;;;2.38;1.52;;;;;;;13.31;79.82;99602.56;8431727;28;20044;-75
2022/07/13 02:42:50;;;;;;;2.05;1.50;;;;;;;13.32;79.86;99596.81;8410863;28;20071;-74
2022/07/13 02:46:51;;;;;;;2.35;1.65;;;;;;;13.32;80.28;99598.75;8395005;28;20054;-74
2022/07/13 02:50:52;;;;;;;3.47;1.95;;;;;;;13.35;79.95;99592.66;8393299;28;20483;-74
2022/07/13 02:54:53;;;;;;;3.60;2.00;;;;;;;13.36;79.87;99588.84;8384761;28;20045;-74
2022/07/13 02:58:55;;;;;;;4.50;1.80;;;;;;;13.35;80.34;99598.09;8428644;28;20040;-74
2022/07/13 03:02:56;;;;;;;4.15;1.70;;;;;;;13.39;80.39;99599.06;8424689;28;20064;-74
2022/07/13 03:06:57;;;;;;;3.50;1.80;;;;;;;13.46;80.26;99588.56;8409712;28;20121;-74
2022/07/13 03:10:58;;;;;;;3.95;2.00;;;;;;;13.53;80.65;99599.75;8426163;28;21208;-74
2022/07/13 03:14:59;;;;;;;6.25;2.13;;;;;;;13.61;80.44;99595.44;8372733;28;20056;-74
2022/07/13 03:19:00;;;;;;;8.05;2.00;;;;;;;13.67;80.62;99594.97;8373632;28;20450;-75
2022/07/13 03:23:01;;;;;;;3.83;2.03;;;;;;;13.81;80.45;99584.78;8373831;28;20051;-74
2022/07/13 03:27:06;;;;;;;6.00;2.20;;;;;;;13.98;80.21;99585.91;8429131;28;20440;-76
2022/07/13 03:31:07;;;;;;;3.25;1.90;;;;;;;14.12;80.05;99589.25;8427582;28;20048;-74
2022/07/13 03:35:08;;;;;;;5.07;2.28;;;;;;;14.29;79.87;99586.53;8429299;28;20468;-75
2022/07/13 03:39:09;;;;;;;5.18;2.20;;;;;;;14.49;79.55;99588.59;8430637;28;20466;-75
2022/07/13 03:43:10;;;;;;;3.50;1.75;;;;;;;14.63;79.56;99583.78;8429523;28;20053;-75
2022/07/13 03:47:11;;;;;;;4.65;2.10;;;;;;;14.82;79.51;99598.91;8376870;28;20052;-75
2022/07/13 03:51:12;;;;;;;3.22;2.47;;;;;;;15.03;79.32;99591.66;8421482;28;20052;-73
2022/07/13 03:55:14;;;;;;;3.58;1.77;;;;;;;15.21;78.77;99577.66;8428002;28;20051;-74
2022/07/13 03:59:18;;;;;;;3.42;2.00;;;;;;;15.39;78.37;99581.06;8429844;28;20147;-74
2022/07/13 04:03:19;;;;;;;4.78;1.70;;;;;;;15.55;77.86;99571.25;8423093;28;20052;-74
2022/07/13 04:07:19;;;;;;;2.58;1.85;;;;;;;15.69;77.46;99575.66;8428232;28;20143;-74
2022/07/13 04:11:20;;;;;;;2.88;1.70;;;;;;;15.84;77.11;99583.22;8429468;28;20134;-75
2022/07/13 04:15:24;;;;;;;5.10;1.88;;;;;;;16.01;76.53;99577.66;8424713;28;20459;-74
2022/07/13 04:19:25;;;;;;;4.03;1.63;;;;;;;16.14;76.09;99587.47;8428263;28;20495;-74
2022/07/13 04:23:28;;;;;;;2.83;1.65;;;;;;;16.27;75.50;99580.97;8401868;28;20055;-74
2022/07/13 04:27:29;;;;;;;5.70;1.40;;;;;;;16.30;75.62;99591.19;8423520;28;20117;-74
2022/07/13 04:31:30;;;;;;;6.90;1.85;;;;;;;16.31;75.69;99603.69;8424037;28;20123;-74
2022/07/13 04:35:31;;;;;;;2.00;1.40;;;;;;;16.31;75.51;99592.78;8376327;28;20047;-74
2022/07/13 04:39:32;;;;;;;4.47;1.45;;;;;;;16.31;75.71;99600.94;8373779;28;20058;-75
2022/07/13 04:43:33;;;;;;;2.70;1.60;;;;;;;16.35;75.79;99599.13;8421919;28;20040;-75
2022/07/13 04:47:34;;;;;;;5.35;1.83;;;;;;;16.45;75.30;99604.19;8416596;28;20186;-75
2022/07/13 04:51:35;;;;;;;1.83;1.27;;;;;;;16.56;74.82;99599.09;8389206;28;20056;-75
2022/07/13 04:55:37;;;;;;;2.75;1.60;;;;;;;16.65;74.71;99590.88;8427296;28;20458;-75
2022/07/13 04:59:38;;;;;;;3.65;1.67;;;;;;;16.73;74.05;99589.97;8424764;28;20056;-74
2022/07/13 05:03:39;;;;;;;4.70;1.42;;;;;;;16.82;73.74;99596.13;8419066;28;20139;-75
2022/07/13 05:07:40;;;;;;;3.28;1.50;;;;;;;16.89;73.55;99590.91;8426879;28;20089;-75
2022/07/13 05:11:41;;;;;;;3.97;1.90;;;;;;;16.99;73.25;99601.41;8408725;28;20044;-75
2022/07/13 05:15:42;;;;;;;4.10;1.42;;;;;;;17.08;72.80;99596.63;8427263;28;20048;-75
2022/07/13 05:19:43;;;;;;;4.13;1.65;;;;;;;17.22;72.43;99594.38;8390464;28;20135;-75
2022/07/13 05:23:44;;;;;;;2.75;1.40;;;;;;;17.37;71.90;99594.81;8408969;28;20447;-75
2022/07/13 05:27:45;;;;;;;2.22;1.50;;;;;;;17.47;72.12;99588.91;8418449;28;20041;-74
2022/07/13 05:31:46;;;;;;;4.50;1.58;;;;;;;17.62;71.76;99580.03;8405654;28;20096;-75
2022/07/13 05:35:47;;;;;;;3.85;1.60;;;;;;;17.73;72.04;99586.63;8375419;28;20052;-75
2022/07/13 05:39:48;;;;;;;4.05;1.48;;;;;;;17.85;71.47;99589.34;8424258;28;20062;-74
2022/07/13 05:43:49;;;;;;;1.92;1.17;;;;;;;17.98;71.16;99588.16;8422672;28;20396;-74
2022/07/13 05:47:50;;;;;;;3.25;1.30;;;;;;;18.14;70.76;99590.94;8331551;28;20411;-75
2022/07/13 05:51:51;;;;;;;4.85;1.30;;;;;;;18.30;70.97;99571.88;8324619;28;20084;-74
2022/07/13 05:55:52;;;;;;;2.03;1.20;;;;;;;18.50;70.96;99581.81;8324257;28;20390;-75
2022/07/13 05:59:53;;;;;;;2.53;1.13;;;;;;;18.64;70.15;99590.44;8284545;28;20042;-74
2022/07/13 06:03:54;;;;;;;4.35;1.20;;;;;;;18.76;69.98;99590.38;8288497;28;20045;-75
2022/07/13 06:07:55;;;;;;;2.00;1.30;;;;;;;18.82;69.05;99588.94;8317209;28;20042;-75
2022/07/13 06:11:59;;;;;;;1.10;1.00;;;;;;;18.89;68.63;99583.66;8319376;28;20045;-74
2022/07/13 06:16:01;;;;;;;2.20;1.10;;;;;;;18.99;68.10;99583.13;8316653;28;20063;-75
2022/07/13 06:20:03;;;;;;;2.13;1.10;;;;;;;19.14;67.05;99595.22;8364951;28;20587;-74
2022/07/13 06:24:05;;;;;;;1.58;1.00;;;;;;;19.21;66.50;99589.13;8388960;28;20459;-75
2022/07/13 06:28:06;;;;;;;1.75;1.15;;;;;;;19.28;66.27;99589.31;8378652;28;20385;-74
2022/07/13 06:32:08;;;;;;;1.90;1.30;;;;;;;19.37;66.72;99587.19;8387011;28;20074;-74
2022/07/13 06:36:09;;;;;;;5.05;1.60;;;;;;;19.45;65.39;99589.00;8352226;28;20101;-75
2022/07/13 06:40:11;;;;;;;2.42;1.40;;;;;;;19.46;66.16;99604.25;8387596;28;20041;-74
2022/07/13 06:44:14;;;;;;;2.25;1.40;;;;;;;19.47;65.40;99600.38;8388719;28;20629;-75
2022/07/13 06:48:14;;;;;;;2.40;1.40;;;;;;;19.49;65.48;99605.50;8343445;28;20048;-74
2022/07/13 06:52:16;;;;;;;4.00;1.30;;;;;;;19.57;65.88;99612.72;8405895;28;20062;-75
2022/07/13 06:56:23;;;;;;;1.70;1.58;;;;;;;19.69;66.60;99594.22;8372773;28;20109;-75
2022/07/13 07:00:24;;;;;;;3.92;1.50;;;;;;;19.85;65.65;99601.63;8271815;28;20592;-74
2022/07/13 07:04:25;;;;;;;3.08;1.30;;;;;;;19.96;64.44;99608.13;8321444;28;20056;-74
2022/07/13 07:08:26;;;;;;;4.20;1.60;;;;;;;20.02;63.85;99612.97;8321924;28;20072;-75
2022/07/13 07:12:27;;;;;;;3.90;1.38;;;;;;;20.13;63.66;99618.69;8312569;28;20386;-74
2022/07/13 07:16:29;;;;;;;3.42;1.63;;;;;;;20.28;62.31;99620.56;8304976;28;20080;-74
2022/07/13 07:20:30;;;;;;;2.10;1.40;;;;;;;20.32;62.50;99615.97;8307378;28;20037;-74
2022/07/13 07:24:31;;;;;;;3.30;1.75;;;;;;;20.47;62.42;99606.88;8320844;28;20060;-73
2022/07/13 07:28:32;;;;;;;2.97;1.42;;;;;;;20.69;63.25;99602.59;8322070;28;20177;-75
2022/07/13 07:32:33;;;;;;;1.98;1.30;;;;;;;21.03;62.98;99611.84;8321630;28;20049;-74
2022/07/13 07:36:34;;;;;;;6.32;1.50;;;;;;;21.27;60.39;99614.22;8363696;28;20068;-74
2022/07/13 07:40:35;;;;;;;1.73;1.30;;;;;;;21.23;59.13;99616.13;8429882;28;20036;-74
2022/07/13 07:44:36;;;;;;;2.80;1.27;;;;;;;21.11;58.60;99613.53;8425062;28;20487;-74
2022/07/13 07:48:38;;;;;;;2.17;1.00;;;;;;;21.04;58.55;99613.44;8374371;28;20048;-75
2022/07/13 07:52:39;;;;;;;1.38;1.20;;;;;;;21.06;60.14;99613.84;8424425;28;20511;-74
2022/07/13 07:56:40;;;;;;;2.38;1.27;;;;;;;21.02;58.80;99615.72;8430030;28;20096;-75
2022/07/13 08:00:41;;;;;;;1.88;1.40;;;;;;;20.95;59.60;99610.91;8428078;28;20472;-74
2022/07/13 08:04:44;;;;;;;2.47;1.50;;;;;;;20.96;59.86;99612.50;8429032;28;20044;-75
2022/07/13 08:08:45;;;;;;;2.30;1.40;;;;;;;21.03;60.23;99606.34;8429465;28;20486;-74
2022/07/13 08:12:47;;;;;;;5.25;1.77;;;;;;;21.14;59.53;99607.34;8393644;28;20521;-75
2022/07/13 08:16:48;;;;;;;3.95;1.52;;;;;;;21.18;60.30;99613.69;8423237;28;20060;-74
2022/07/13 08:20:50;;;;;;;2.85;1.50;;;;;;;21.16;60.50;99613.25;8379511;28;20051;-74
2022/07/13 08:24:52;;;;;;;2.28;1.40;;;;;;;21.20;60.70;99616.88;8423043;28;20075;-74
2022/07/13 08:28:54;;;;;;;3.22;1.35;;;;;;;21.41;60.27;99611.69;8428664;28;20143;-75
2022/07/13 08:32:55;;;;;;;2.65;1.30;;;;;;;21.70;58.09;99618.44;8425701;28;20507;-75
2022/07/13 08:41:19;;;;;;;1.75;1.17;;;;;;;22.20;56.95;99614.44;8393350;28;20040;-75
2022/07/13 08:45:20;;;;;;;4.88;1.30;;;;;;;22.31;55.53;99620.84;8428045;28;20040;-75
2022/07/13 08:49:22;;;;;;;4.68;2.13;;;;;;;22.38;56.88;99616.59;8386641;28;20060;-74
2022/07/13 08:53:24;;;;;;;1.45;1.13;;;;;;;22.63;54.09;99606.69;8401422;28;20079;-73
2022/07/13 08:57:26;;;;;;;3.33;1.50;;;;;;;22.65;55.91;99607.88;8369585;28;20127;-76
2022/07/13 09:01:31;;;;;;;1.83;1.20;;;;;;;22.93;54.92;99607.41;8398591;28;20044;-75
2022/07/13 09:05:33;;;;;;;1.23;0.90;;;;;;;23.12;51.03;99609.94;8417969;28;20094;-74
2022/07/13 09:09:36;;;;;;;2.65;1.00;;;;;;;23.12;51.09;99604.44;8426205;28;20540;-75
2022/07/13 09:13:41;;;;;;;1.20;0.95;;;;;;;23.12;51.01;99595.38;8419039;28;20094;-74
2022/07/13 09:17:43;;;;;;;1.08;0.95;;;;;;;23.22;51.47;99599.38;8421209;28;20058;-75
2022/07/13 09:21:44;;;;;;;3.75;1.10;;;;;;;23.25;50.46;99602.19;8412746;28;20139;-74
2022/07/13 09:25:47;;;;;;;2.03;1.25;;;;;;;23.34;49.87;99593.59;8405411;28;20037;-75
2022/07/13 09:29:49;;;;;;;1.55;0.85;;;;;;;23.52;48.64;99589.03;8355010;28;20546;-74
2022/07/13 09:33:54;;;;;;;3.42;0.73;;;;;;;23.81;46.17;99590.00;8380545;28;20079;-74
2022/07/13 09:37:54;;;;;;;0.93;0.77;;;;;;;24.13;45.47;99584.66;8398230;28;20037;-76
2022/07/13 09:41:56;;;;;;;2.22;1.00;;;;;;;24.10;45.91;99593.72;8340105;28;20156;-75
2022/07/13 09:46:09;;;;;;;2.30;1.08;;;;;;;24.03;45.80;99604.69;8397854;28;20488;-74
2022/07/13 09:50:11;;;;;;;1.25;0.77;;;;;;;24.22;46.03;99598.91;8416818;28;20058;-75
2022/07/13 09:54:13;;;;;;;3.08;1.02;;;;;;;24.54;45.85;99594.28;8412105;28;20411;-74
2022/07/13 09:58:15;;;;;;;1.20;0.80;;;;;;;24.98;46.41;99595.97;8426196;28;20539;-75
2022/07/13 10:02:17;;;;;;;4.10;1.27;;;;;;;25.38;44.71;99594.81;8399434;28;20087;-74
2022/07/13 10:06:20;;;;;;;2.35;0.88;;;;;;;25.42;43.86;99593.63;8426365;28;20052;-73
2022/07/13 10:10:22;;;;;;;2.75;1.08;;;;;;;25.30;43.63;99591.25;8374270;28;20048;-75
2022/07/13 10:14:24;;;;;;;3.63;0.90;;;;;;;25.20;42.42;99592.06;8400438;28;20052;-76
2022/07/13 10:18:30;;;;;;;1.40;1.00;;;;;;;24.92;40.95;99603.06;8416029;28;20066;-75
2022/07/13 10:22:35;;;;;;;3.72;0.70;;;;;;;24.87;40.81;99600.66;8400368;28;20051;-75
2022/07/13 10:26:36;;;;;;;2.40;0.82;;;;;;;25.17;41.45;99587.28;8415783;28;20044;-74
2022/07/13 10:30:41;;;;;;;0.70;0.70;;;;;;;25.44;39.90;99585.72;8381921;28;20124;-74
2022/07/13 10:35:09;;;;;;;2.35;0.80;;;;;;;25.42;40.09;99573.47;8422429;28;20032;-75
2022/07/13 10:39:11;;;;;;;3.47;1.10;;;;;;;25.32;40.63;99560.47;8424884;28;20054;-75
2022/07/13 10:43:13;;;;;;;1.52;0.85;;;;;;;25.46;40.49;99572.28;8416688;28;20075;-75
2022/07/13 10:47:19;;;;;;;1.83;0.98;;;;;;;25.58;39.97;99569.16;8426572;28;20472;-74
2022/07/13 10:51:22;;;;;;;0.80;0.80;;;;;;;25.72;39.89;99564.75;8380593;28;20056;-74
2022/07/13 10:55:27;;;;;;;4.72;1.20;;;;;;;25.93;40.42;99561.94;8342681;28;20056;-75
2022/07/13 10:59:47;;;;;;;1.15;1.05;;;;;;;26.10;40.49;99555.53;8413088;28;20052;-74
2022/07/13 11:03:49;;;;;;;1.58;0.90;;;;;;;26.34;39.10;99554.66;8412788;28;20058;-74
2022/07/13 11:07:51;;;;;;;3.67;1.20;;;;;;;26.54;37.12;99562.47;8409755;28;20403;-74
2022/07/13 11:11:53;;;;;;;2.10;1.08;;;;;;;26.69;36.80;99552.88;8430660;28;20117;-74
2022/07/13 11:15:55;;;;;;;3.38;0.82;;;;;;;26.59;37.59;99548.22;8419878;28;20102;-74
2022/07/13 11:20:00;;;;;;;1.58;0.93;;;;;;;26.71;37.96;99544.94;8426238;28;20051;-74
2022/07/13 11:28:36;;;;;;;3.30;0.90;;;;;;;26.81;36.68;99544.06;8404719;28;20036;-74
2022/07/13 11:32:38;;;;;;;0.65;0.65;;;;;;;26.54;36.47;99545.88;8428826;28;20068;-74
2022/07/13 11:36:42;;;;;;;1.75;0.85;;;;;;;26.37;37.38;99536.47;8405115;28;20429;-74
2022/07/13 11:40:44;;;;;;;4.55;1.00;;;;;;;26.31;37.05;99533.31;8380398;28;20595;-75
2022/07/13 11:44:49;;;;;;;4.35;0.80;;;;;;;26.75;37.22;99518.03;8375683;28;20059;-75
2022/07/13 11:49:04;;;;;;;2.65;1.00;;;;;;;27.04;37.24;99513.84;8403290;28;20404;-74
2022/07/13 11:53:06;;;;;;;2.63;1.10;;;;;;;27.45;36.21;99513.03;8307248;28;20501;-74
2022/07/13 11:57:07;;;;;;;1.52;0.95;;;;;;;27.65;36.66;99514.06;8317650;28;20053;-73
2022/07/13 12:01:16;;;;;;;4.03;1.08;;;;;;;27.34;36.44;99509.63;8350873;28;20110;-74
2022/07/13 12:05:28;;;;;;;1.02;0.88;;;;;;;27.11;38.03;99513.78;8352030;28;20132;-74
2022/07/13 12:09:29;;;;;;;2.38;1.00;;;;;;;26.83;38.22;99502.91;8353077;28;20084;-74
2022/07/13 12:13:34;;;;;;;2.78;1.10;;;;;;;26.98;38.38;99498.84;8349491;28;20127;-75
2022/07/13 12:17:44;;;;;;;1.95;1.23;;;;;;;27.40;38.29;99491.31;8350527;28;20045;-74
2022/07/13 12:21:59;;;;;;;1.80;1.10;;;;;;;27.63;38.18;99494.25;8352898;28;20037;-74
2022/07/13 12:26:05;;;;;;;2.70;1.10;;;;;;;27.70;36.73;99483.09;8353875;28;20556;-74
2022/07/13 12:30:08;;;;;;;1.98;1.10;;;;;;;28.03;37.49;99479.47;8353616;28;20060;-74
2022/07/13 12:34:10;;;;;;;1.48;1.20;;;;;;;28.18;37.53;99490.44;8356279;28;20126;-74
2022/07/13 12:38:14;;;;;;;4.35;1.75;;;;;;;27.99;37.12;99487.06;8353426;28;20056;-75
2022/07/13 12:42:15;;;;;;;1.80;1.02;;;;;;;28.37;35.92;99470.31;8358374;28;20074;-74
2022/07/13 12:46:16;;;;;;;1.20;1.10;;;;;;;28.92;34.83;99476.19;8353062;28;20045;-75
2022/07/13 12:50:30;;;;;;;3.67;1.20;;;;;;;29.35;33.60;99472.66;8357363;28;20885;-75
2022/07/13 12:54:41;;;;;;;1.05;0.90;;;;;;;29.33;32.37;99480.66;8400400;28;20083;-75
2022/07/13 12:58:44;;;;;;;4.55;1.00;;;;;;;28.91;33.12;99471.84;8409814;28;20044;-75
2022/07/13 13:02:45;;;;;;;1.35;1.00;;;;;;;28.73;34.20;99460.25;8411922;28;20128;-75
2022/07/13 13:06:47;;;;;;;1.42;0.95;;;;;;;28.48;33.54;99455.06;8410758;28;20048;-76
2022/07/13 13:10:48;;;;;;;3.17;0.90;;;;;;;28.31;33.30;99449.75;8400962;28;20411;-76
2022/07/13 13:14:49;;;;;;;2.58;0.90;;;;;;;28.63;33.21;99438.94;8361779;28;20047;-75
2022/07/13 13:18:50;;;;;;;1.90;1.05;;;;;;;28.82;32.86;99435.47;8405358;28;20049;-74
2022/07/13 13:22:51;;;;;;;0.93;0.90;;;;;;;29.35;33.28;99439.28;8359328;28;20090;-75
2022/07/13 13:26:52;;;;;;;2.38;1.00;;;;;;;29.69;31.43;99448.16;8411836;28;20388;-74
2022/07/13 13:30:53;;;;;;;3.97;1.05;;;;;;;29.47;31.56;99441.44;8406814;28;20044;-75
2022/07/13 13:34:56;;;;;;;3.72;1.25;;;;;;;29.05;31.96;99439.44;8376311;28;20052;-74
2022/07/13 13:38:57;;;;;;;3.28;1.10;;;;;;;28.78;32.28;99434.75;8410818;28;20044;-75
2022/07/13 13:42:59;;;;;;;1.70;0.90;;;;;;;28.93;33.38;99436.06;8384942;28;20051;-75
2022/07/13 13:47:00;;;;;;;7.10;1.02;;;;;;;28.87;33.58;99432.19;8404012;28;20055;-75
2022/07/13 13:51:01;;;;;;;1.90;0.98;;;;;;;28.60;32.44;99423.13;8400679;28;20072;-74
2022/07/13 13:55:03;;;;;;;1.73;0.90;;;;;;;28.69;33.52;99426.13;8409425;28;20488;-75
2022/07/13 13:59:03;;;;;;;1.50;0.90;;;;;;;29.78;32.23;99423.28;8413004;28;20052;-74
2022/07/13 14:03:05;;;;;;;3.28;1.10;;;;;;;29.83;31.39;99418.41;8376903;28;20044;-75
2022/07/13 14:07:08;;;;;;;1.23;0.90;;;;;;;29.32;33.33;99418.69;8416305;28;20055;-75
2022/07/13 14:11:11;;;;;;;2.92;1.20;;;;;;;28.91;33.88;99410.69;8402621;28;20070;-75
2022/07/13 14:15:12;;;;;;;2.75;1.10;;;;;;;28.62;34.31;99404.03;8391698;28;20048;-75
2022/07/13 14:19:13;;;;;;;3.55;1.20;;;;;;;28.92;32.79;99401.13;8405727;28;20513;-76
2022/07/13 14:23:14;;;;;;;1.73;0.90;;;;;;;29.12;33.16;99398.38;8429900;28;20051;-75
2022/07/13 14:27:16;;;;;;;1.27;0.93;;;;;;;32.44;29.03;99376.31;8421807;28;20511;-75
2022/07/13 14:31:17;;;;;;;2.25;1.10;;;;;;;35.27;26.19;99376.53;8426807;28;20058;-74
2022/07/13 14:35:18;;;;;;;2.28;1.10;;;;;;;34.10;26.84;99375.88;8425258;28;20828;-73
2022/07/13 14:39:19;;;;;;;1.52;1.05;;;;;;;34.95;23.94;99377.16;8379335;28;20090;-74
2022/07/13 14:43:20;;;;;;;2.15;1.27;;;;;;;35.92;23.25;99363.91;8416923;28;20058;-73
2022/07/13 14:47:21;;;;;;;1.25;1.00;;;;;;;36.25;23.01;99370.31;8424418;28;20477;-73
2022/07/13 14:51:23;;;;;;;3.42;0.93;;;;;;;36.71;21.56;99367.25;8414512;28;20056;-73
2022/07/13 14:55:24;;;;;;;3.13;1.00;;;;;;;33.95;24.58;99363.63;8386543;28;20060;-74
2022/07/13 14:59:26;;;;;;;1.73;1.20;;;;;;;31.67;26.88;99369.16;8385451;28;20462;-73
2022/07/13 15:03:27;;;;;;;2.05;1.10;;;;;;;32.48;27.45;99371.38;8405926;28;20059;-73
2022/07/13 15:07:28;;;;;;;1.27;1.02;;;;;;;34.74;24.35;99362.78;8416762;28;20048;-72
2022/07/13 15:11:29;;;;;;;4.05;1.20;;;;;;;35.76;22.92;99350.22;8414491;28;20044;-73
2022/07/13 15:15:32;;;;;;;1.55;1.15;;;;;;;33.77;25.13;99366.38;8417573;28;20088;-72
2022/07/13 15:19:33;;;;;;;6.72;1.25;;;;;;;32.25;27.70;99359.34;8397716;28;20055;-73
2022/07/13 15:23:34;;;;;;;14.38;1.50;;;;;;;31.28;28.99;99354.31;8408164;28;20136;-73
2022/07/13 15:27:38;;;;;;;2.00;1.60;;;;;;;30.70;29.54;99349.94;8412917;28;20048;-73
2022/07/13 15:31:41;;;;;;;5.40;1.50;;;;;;;30.71;29.85;99343.94;8412352;28;20040;-73
2022/07/13 15:35:43;;;;;;;3.08;1.33;;;;;;;30.70;30.13;99341.56;8408313;28;20044;-73
2022/07/13 15:39:44;;;;;;;1.95;1.42;;;;;;;31.05;29.76;99335.03;8409558;28;20125;-74
2022/07/13 15:43:45;;;;;;;4.10;1.98;;;;;;;30.86;29.80;99333.16;8417318;28;20475;-73
2022/07/13 15:47:46;;;;;;;3.60;1.80;;;;;;;30.40;30.71;99335.16;8425718;28;20059;-73
2022/07/13 15:51:47;;;;;;;6.65;2.28;;;;;;;29.87;31.60;99325.28;8414233;28;20080;-74
2022/07/13 15:55:49;;;;;;;5.25;2.40;;;;;;;29.38;32.23;99332.72;8406929;28;20040;-73
2022/07/13 15:59:49;;;;;;;3.25;2.28;;;;;;;29.18;32.48;99334.72;8422241;28;20044;-73
2022/07/13 16:03:51;;;;;;;5.05;2.65;;;;;;;28.96;33.18;99326.81;8423486;28;20535;-74
2022/07/13 16:07:52;;;;;;;3.78;2.78;;;;;;;28.71;33.04;99332.00;8426844;28;20044;-73
2022/07/13 16:11:53;;;;;;;5.63;2.70;;;;;;;28.53;33.65;99317.66;8422079;28;20051;-74
2022/07/13 16:15:54;;;;;;;8.48;2.80;;;;;;;28.44;34.35;99325.75;8426530;28;20064;-74
2022/07/13 16:19:57;;;;;;;3.85;2.60;;;;;;;28.28;36.00;99325.66;8427241;28;20426;-74
2022/07/13 16:23:57;;;;;;;4.05;1.55;;;;;;;28.09;34.78;99319.56;8422287;28;20044;-73
2022/07/13 16:27:59;;;;;;;8.20;1.67;;;;;;;27.99;33.86;99328.84;8393112;28;20166;-74
2022/07/13 16:32:03;;;;;;;3.47;1.15;;;;;;;27.85;32.33;99317.97;8425116;28;20646;-74
2022/07/13 16:36:04;;;;;;;4.30;1.17;;;;;;;27.70;31.62;99322.16;8359370;28;20062;-74
2022/07/13 16:40:06;;;;;;;4.88;0.95;;;;;;;27.56;30.97;99316.78;8428177;28;20089;-74
2022/07/13 16:44:07;;;;;;;1.30;1.00;;;;;;;27.39;31.63;99317.81;8427491;28;20423;-74
2022/07/13 16:48:08;;;;;;;2.42;1.00;;;;;;;27.29;31.19;99314.75;8428182;28;20059;-73
2022/07/13 16:52:15;;;;;;;1.33;0.98;;;;;;;27.17;31.99;99312.53;8417025;28;20147;-74
2022/07/13 16:56:16;;;;;;;1.08;0.80;;;;;;;26.99;32.51;99311.94;8425360;28;20400;-73
2022/07/13 17:00:17;;;;;;;6.97;1.13;;;;;;;26.84;33.54;99316.06;8426491;28;20396;-73
2022/07/13 17:04:19;;;;;;;1.73;1.00;;;;;;;26.68;34.96;99318.59;8371255;28;20045;-72
2022/07/13 17:08:20;;;;;;;5.65;1.10;;;;;;;26.52;35.47;99316.38;8412682;28;20122;-73
2022/07/13 17:12:21;;;;;;;2.55;0.95;;;;;;;26.33;36.26;99320.50;8425307;28;20090;-74
2022/07/13 17:16:22;;;;;;;2.17;0.90;;;;;;;26.14;36.80;99312.72;8419570;28;20097;-73
2022/07/13 17:20:23;;;;;;;3.63;1.20;;;;;;;26.00;37.66;99312.84;8403064;28;20139;-73
2022/07/13 17:24:24;;;;;;;6.88;1.10;;;;;;;25.88;37.66;99310.56;8415795;28;20041;-73
2022/07/13 17:28:25;;;;;;;1.65;0.93;;;;;;;25.75;38.23;99313.00;8383689;28;20127;-73
2022/07/13 17:32:26;;;;;;;1.20;0.98;;;;;;;25.60;39.21;99312.31;8415848;28;20097;-73
2022/07/13 17:36:30;;;;;;;5.90;1.17;;;;;;;25.45;40.59;99316.34;8390168;28;20047;-73
2022/07/13 17:40:31;;;;;;;2.00;1.00;;;;;;;25.34;41.27;99321.13;8408298;28;20127;-73
2022/07/13 17:44:32;;;;;;;4.95;1.00;;;;;;;25.20;42.17;99310.13;8356191;28;20051;-74
2022/07/13 17:48:33;;;;;;;7.68;1.13;;;;;;;25.06;43.23;99315.72;8423036;28;20059;-73
2022/07/13 17:52:34;;;;;;;5.28;1.20;;;;;;;24.95;43.82;99314.97;8393757;28;20049;-73
2022/07/13 17:56:35;;;;;;;2.00;1.02;;;;;;;24.81;44.23;99305.50;8417310;28;20550;-73
2022/07/13 18:00:36;;;;;;;1.27;1.17;;;;;;;24.67;44.87;99322.13;8390201;28;20101;-74
2022/07/13 18:04:37;;;;;;;3.03;1.48;;;;;;;24.57;45.20;99316.63;8421943;28;20127;-74
2022/07/13 18:08:38;;;;;;;6.38;1.45;;;;;;;24.45;45.32;99300.44;8423344;28;20089;-74
2022/07/13 18:12:39;;;;;;;3.13;1.30;;;;;;;24.32;46.04;99316.66;8415492;28;20141;-74
2022/07/13 18:16:41;;;;;;;1.70;1.30;;;;;;;24.24;45.83;99320.59;8419852;28;20056;-73
2022/07/13 18:20:42;;;;;;;6.53;1.35;;;;;;;24.15;45.96;99322.94;8420801;28;20059;-73
2022/07/13 18:24:42;;;;;;;5.50;1.20;;;;;;;24.01;46.64;99318.16;8425496;28;20495;-74
2022/07/13 18:28:45;;;;;;;3.92;1.25;;;;;;;23.88;46.74;99320.53;8426233;28;20151;-73
2022/07/13 18:32:46;;;;;;;1.85;1.13;;;;;;;23.76;47.45;99312.63;8365337;28;20047;-74
2022/07/13 18:36:47;;;;;;;5.55;1.30;;;;;;;23.70;47.76;99319.72;8420907;28;20044;-74
2022/07/13 18:40:50;;;;;;;3.83;1.25;;;;;;;23.61;48.37;99322.06;8425310;28;20036;-74
2022/07/13 18:44:52;;;;;;;1.38;1.00;;;;;;;23.47;48.96;99322.03;8383522;28;20148;-73
2022/07/13 18:48:53;;;;;;;1.85;1.27;;;;;;;23.36;50.31;99315.66;8381770;28;20051;-73
2022/07/13 18:52:56;;;;;;;5.63;1.73;;;;;;;23.27;50.36;99312.47;8379439;28;20036;-73
2022/07/13 18:56:58;;;;;;;8.30;2.00;;;;;;;23.21;50.51;99319.56;8417379;28;20041;-73
2022/07/13 19:01:00;;;;;;;3.90;2.60;;;;;;;23.12;51.15;99312.44;8420754;28;20128;-73
2022/07/13 19:05:01;;;;;;;8.43;2.63;;;;;;;23.05;51.91;99317.88;8416488;28;20039;-74
2022/07/13 19:09:03;;;;;;;3.70;2.65;;;;;;;22.98;52.32;99317.09;8373545;28;20094;-73